Time;durP1;ratioP1;P1;durP2;ratioP2;P2;SDS_P1;SDS_P2;PMS_P1;PMS_P2;Temp;Humidity;BMP_temperature;BMP_pressure;BME280_temperature;BME280_humidity;BME280_pressure;Samples;Min_cycle;Max_cycle;Signal;HPM_P1;HPM_P2
2023/07/27 00:01:14;;;;;;;2.95;1.45;;;;;;;26.00;37.75;100757.66;5052974;28;20559;-65
2023/07/27 00:03:39;;;;;;;4.00;1.73;;;;;;;25.99;37.64;100762.28;5053699;28;20033;-65
2023/07/27 00:06:05;;;;;;;1.75;1.25;;;;;;;25.95;37.79;100758.34;5052597;28;20041;-65
2023/07/27 00:08:31;;;;;;;1.98;1.55;;;;;;;25.93;37.79;100757.75;5052474;28;20049;-65
2023/07/27 00:10:56;;;;;;;2.13;1.27;;;;;;;25.90;37.68;100760.97;5053499;28;20041;-65
2023/07/27 00:13:21;;;;;;;2.40;1.02;;;;;;;25.89;37.64;100748.28;5052679;28;20025;-65
2023/07/27 00:15:47;;;;;;;8.70;2.38;;;;;;;25.87;37.61;100749.59;5035907;28;20495;-64
2023/07/27 00:18:12;;;;;;;4.95;1.27;;;;;;;25.87;37.64;100755.94;5052789;28;20029;-65
2023/07/27 00:20:37;;;;;;;3.20;1.55;;;;;;;25.90;37.89;100749.13;5052910;28;20119;-65
2023/07/27 00:23:03;;;;;;;2.92;1.48;;;;;;;25.90;38.01;100744.50;5052844;28;20086;-65
2023/07/27 00:25:28;;;;;;;9.13;2.47;;;;;;;25.90;37.94;100749.97;5052536;28;20110;-65
2023/07/27 00:27:54;;;;;;;3.88;1.25;;;;;;;25.90;37.95;100744.50;5052502;28;20029;-65
2023/07/27 00:30:19;;;;;;;4.15;1.08;;;;;;;25.90;37.75;100740.91;5035762;28;20362;-65
2023/07/27 00:32:44;;;;;;;8.93;1.40;;;;;;;25.89;37.70;100741.97;5035269;28;20040;-65
2023/07/27 00:35:10;;;;;;;2.55;1.33;;;;;;;25.87;38.07;100750.44;5035340;28;20157;-65
2023/07/27 00:37:36;;;;;;;1.65;1.30;;;;;;;25.88;37.77;100752.09;5035383;28;20503;-65
2023/07/27 00:40:02;;;;;;;4.78;1.60;;;;;;;25.88;37.92;100745.78;5053158;28;20021;-65
2023/07/27 00:42:28;;;;;;;1.77;1.30;;;;;;;25.87;38.03;100739.47;5052068;28;20024;-64
2023/07/27 00:44:53;;;;;;;3.38;1.45;;;;;;;25.88;38.25;100746.59;5053064;28;20025;-64
2023/07/27 00:47:18;;;;;;;2.22;1.38;;;;;;;25.89;38.54;100741.97;5053561;28;20097;-65
2023/07/27 00:49:44;;;;;;;2.95;1.88;;;;;;;25.89;38.24;100742.81;5051924;28;20507;-65
2023/07/27 00:52:09;;;;;;;4.78;1.33;;;;;;;25.90;38.49;100735.41;5034987;28;20122;-65
2023/07/27 00:54:35;;;;;;;2.75;1.45;;;;;;;25.88;38.64;100738.38;5051671;28;20469;-65
2023/07/27 00:57:01;;;;;;;5.25;1.58;;;;;;;25.87;38.62;100733.13;5051526;28;20025;-65
2023/07/27 00:59:28;;;;;;;3.25;1.63;;;;;;;25.81;38.92;100723.91;5051308;28;20166;-64
2023/07/27 01:01:53;;;;;;;2.97;1.38;;;;;;;25.76;39.12;100723.78;5051598;28;20080;-64
2023/07/27 01:04:19;;;;;;;1.67;1.30;;;;;;;25.73;39.10;100726.97;5051601;28;20124;-64
2023/07/27 01:06:44;;;;;;;8.93;1.75;;;;;;;25.68;39.64;100724.09;5053031;28;20029;-64
2023/07/27 01:09:10;;;;;;;4.35;1.30;;;;;;;25.65;39.78;100724.53;5053159;28;20474;-63
2023/07/27 01:11:58;;;;;;;2.63;1.52;;;;;;;25.60;40.41;100716.13;5018386;28;20087;-64
2023/07/27 01:14:48;;;;;;;3.42;1.50;;;;;;;25.55;39.77;100713.25;5052777;28;20126;-64
2023/07/27 01:17:24;;;;;;;2.65;1.58;;;;;;;25.41;40.22;100701.56;5052892;28;20516;-64
2023/07/27 01:20:09;;;;;;;6.63;1.75;;;;;;;25.41;40.66;100707.06;5051622;28;20064;-64
2023/07/27 01:23:13;;;;;;;2.30;1.27;;;;;;;25.35;40.91;100705.22;5051269;28;20029;-64
2023/07/27 01:25:46;;;;;;;7.15;1.23;;;;;;;25.28;40.83;100692.66;5049378;28;20079;-64
2023/07/27 01:28:35;;;;;;;3.28;1.55;;;;;;;25.23;40.91;100700.75;5048188;28;20447;-64
2023/07/27 01:31:13;;;;;;;4.03;1.70;;;;;;;25.13;41.57;100692.19;5052476;28;20378;-64
2023/07/27 01:33:45;;;;;;;2.78;1.48;;;;;;;25.04;41.77;100683.44;5052712;28;20065;-63
2023/07/27 01:36:17;;;;;;;2.90;2.00;;;;;;;25.00;41.50;100689.59;5034769;28;20029;-63
2023/07/27 01:38:44;;;;;;;4.43;1.42;;;;;;;24.93;41.37;100686.09;5051356;28;20029;-63
2023/07/27 01:41:11;;;;;;;5.65;1.98;;;;;;;24.86;41.79;100676.03;5051481;28;20108;-63
2023/07/27 01:43:39;;;;;;;3.47;1.50;;;;;;;24.78;41.77;100668.06;5052750;28;20032;-65
2023/07/27 01:46:05;;;;;;;2.03;1.45;;;;;;;24.74;42.15;100663.25;5051310;28;20062;-63
2023/07/27 01:48:32;;;;;;;3.70;1.50;;;;;;;24.69;42.13;100666.69;5034667;28;20029;-64
2023/07/27 01:50:58;;;;;;;4.10;1.33;;;;;;;24.66;42.25;100663.53;5051401;28;20032;-64
2023/07/27 01:53:24;;;;;;;3.30;1.70;;;;;;;24.62;42.62;100654.94;5051362;28;20033;-63
2023/07/27 01:55:51;;;;;;;4.63;1.65;;;;;;;24.58;42.75;100655.63;5051156;28;20531;-64
2023/07/27 01:58:17;;;;;;;6.45;2.03;;;;;;;24.55;42.27;100653.31;5050818;28;20167;-64
2023/07/27 02:00:43;;;;;;;5.32;1.70;;;;;;;24.47;42.32;100634.44;5051010;28;20041;-63
2023/07/27 02:03:09;;;;;;;6.43;1.80;;;;;;;24.45;43.11;100651.09;5051126;28;20048;-63
2023/07/27 02:05:35;;;;;;;4.07;1.30;;;;;;;24.40;42.85;100653.66;5051229;28;20040;-63
2023/07/27 02:08:00;;;;;;;2.20;1.60;;;;;;;24.32;42.96;100640.25;5051089;28;20029;-63
2023/07/27 02:10:27;;;;;;;2.42;1.38;;;;;;;24.31;43.17;100644.06;5050176;28;20039;-63
2023/07/27 02:12:59;;;;;;;3.55;1.80;;;;;;;24.26;43.43;100643.91;5055704;28;20033;-64
2023/07/27 02:15:33;;;;;;;2.73;1.40;;;;;;;24.19;42.89;100634.88;5056435;28;20075;-63
2023/07/27 02:18:15;;;;;;;3.58;1.67;;;;;;;24.08;42.90;100632.84;5057706;28;20270;-63
2023/07/27 02:20:40;;;;;;;6.15;1.60;;;;;;;23.99;43.31;100623.22;5056930;28;20480;-63
2023/07/27 02:23:07;;;;;;;1.80;1.40;;;;;;;23.90;43.54;100624.56;5037241;28;20120;-63
2023/07/27 02:25:33;;;;;;;3.28;1.38;;;;;;;23.83;43.61;100621.00;5055126;28;20057;-63
2023/07/27 02:27:58;;;;;;;6.10;1.80;;;;;;;23.75;44.00;100612.03;5054952;28;20065;-64
2023/07/27 02:30:23;;;;;;;2.08;1.40;;;;;;;23.74;44.36;100609.50;5053933;28;20523;-64
2023/07/27 02:32:49;;;;;;;3.35;1.63;;;;;;;23.70;44.48;100606.34;5055667;28;20064;-63
2023/07/27 02:35:14;;;;;;;3.55;1.48;;;;;;;23.69;44.78;100596.47;5055529;28;20041;-64
2023/07/27 02:37:40;;;;;;;5.82;1.80;;;;;;;23.67;44.44;100593.09;5037998;28;20037;-64
2023/07/27 02:40:06;;;;;;;8.63;1.73;;;;;;;23.66;44.52;100588.72;5054213;28;20083;-64
2023/07/27 02:42:31;;;;;;;3.20;1.50;;;;;;;23.64;44.30;100577.16;5054159;28;20120;-64
2023/07/27 02:44:56;;;;;;;4.85;2.22;;;;;;;23.61;44.97;100579.50;5055393;28;20124;-64
2023/07/27 02:47:22;;;;;;;5.72;1.98;;;;;;;23.60;45.52;100575.91;5054088;28;20033;-64
2023/07/27 02:49:47;;;;;;;4.07;1.67;;;;;;;23.57;44.98;100576.34;5054275;28;20052;-64
2023/07/27 02:52:12;;;;;;;4.20;1.90;;;;;;;23.53;44.86;100569.66;5055303;28;20048;-63
2023/07/27 02:54:38;;;;;;;4.60;1.60;;;;;;;23.44;45.74;100570.97;5055572;28;20111;-64
2023/07/27 02:57:05;;;;;;;8.18;2.03;;;;;;;23.35;45.66;100557.72;5054377;28;20090;-64
2023/07/27 02:59:30;;;;;;;4.13;2.00;;;;;;;23.31;45.84;100570.19;5055429;28;20040;-65
2023/07/27 03:01:55;;;;;;;5.00;2.03;;;;;;;23.20;45.87;100569.78;5053813;28;20028;-65
2023/07/27 03:04:21;;;;;;;6.95;1.83;;;;;;;23.11;46.22;100565.66;5054114;28;20040;-65
2023/07/27 03:06:46;;;;;;;5.40;2.22;;;;;;;23.02;46.48;100556.00;5054002;28;20416;-65
2023/07/27 03:09:11;;;;;;;5.43;1.88;;;;;;;22.93;46.72;100556.47;5053865;28;20033;-64
2023/07/27 03:11:38;;;;;;;3.70;2.05;;;;;;;22.84;47.21;100564.06;5055070;28;20058;-63
2023/07/27 03:14:04;;;;;;;4.50;2.10;;;;;;;22.76;47.52;100561.56;5053519;28;20120;-63
2023/07/27 03:16:30;;;;;;;3.10;1.75;;;;;;;22.66;47.75;100546.69;5053749;28;20104;-64
2023/07/27 03:18:56;;;;;;;7.30;2.45;;;;;;;22.51;48.06;100530.50;5053557;28;20033;-64
2023/07/27 03:21:21;;;;;;;6.03;2.10;;;;;;;22.45;47.66;100540.41;5054837;28;20029;-64
2023/07/27 03:23:49;;;;;;;10.73;2.15;;;;;;;22.33;48.59;100533.09;5053421;28;20086;-65
2023/07/27 03:26:15;;;;;;;3.40;1.77;;;;;;;22.24;47.87;100524.28;5055096;28;20056;-64
2023/07/27 03:28:41;;;;;;;5.13;2.00;;;;;;;22.13;49.02;100516.75;5036931;28;20061;-65
2023/07/27 03:31:19;;;;;;;3.72;1.80;;;;;;;22.04;49.33;100507.09;5036775;28;20523;-64
2023/07/27 03:33:44;;;;;;;3.45;2.15;;;;;;;21.96;49.14;100502.69;5054870;28;20041;-64
2023/07/27 03:36:10;;;;;;;3.53;1.73;;;;;;;21.92;49.43;100497.84;5053819;28;20029;-65
2023/07/27 03:38:36;;;;;;;4.10;1.40;;;;;;;21.87;49.05;100498.50;5054733;28;20037;-64
2023/07/27 03:41:01;;;;;;;4.72;1.98;;;;;;;21.87;49.25;100500.38;5054627;28;20029;-65
2023/07/27 03:43:27;;;;;;;3.05;1.60;;;;;;;21.81;49.68;100490.28;5054322;28;20527;-65
2023/07/27 03:45:53;;;;;;;2.85;1.77;;;;;;;21.76;49.96;100490.06;5053573;28;20049;-64
2023/07/27 03:48:19;;;;;;;2.30;1.48;;;;;;;21.72;49.52;100480.66;5036443;28;20036;-64
2023/07/27 03:50:44;;;;;;;2.63;1.65;;;;;;;21.64;50.06;100472.66;5036387;28;20083;-64
2023/07/27 03:53:09;;;;;;;4.30;1.60;;;;;;;21.64;50.41;100472.66;5035165;28;20048;-64
2023/07/27 03:55:35;;;;;;;2.55;1.40;;;;;;;21.61;50.44;100464.94;5053140;28;20174;-63
2023/07/27 03:58:00;;;;;;;2.17;1.38;;;;;;;21.55;49.86;100463.03;5053516;28;20025;-63
2023/07/27 04:00:26;;;;;;;2.22;1.52;;;;;;;21.47;50.71;100456.72;5052993;28;20120;-65
2023/07/27 04:02:51;;;;;;;3.25;1.35;;;;;;;21.43;50.62;100455.47;5052831;28;20125;-65
2023/07/27 04:05:17;;;;;;;2.45;1.50;;;;;;;21.40;50.72;100450.44;5053003;28;20500;-65
2023/07/27 04:07:43;;;;;;;2.20;1.77;;;;;;;21.37;50.76;100439.94;5052596;28;20025;-65
2023/07/27 04:10:09;;;;;;;3.15;1.83;;;;;;;21.37;51.04;100450.00;5054057;28;20029;-64
2023/07/27 04:12:34;;;;;;;6.30;1.58;;;;;;;21.34;51.32;100444.97;5053949;28;20519;-68
2023/07/27 04:15:00;;;;;;;2.67;1.52;;;;;;;21.30;51.71;100441.81;5053837;28;20033;-65
2023/07/27 04:17:25;;;;;;;5.50;1.23;;;;;;;21.30;51.58;100428.19;5052513;28;20036;-66
2023/07/27 04:19:50;;;;;;;1.55;1.30;;;;;;;21.36;50.85;100442.88;5053874;28;20025;-66
2023/07/27 04:22:16;;;;;;;2.72;1.60;;;;;;;21.40;51.32;100439.53;5053615;28;20026;-67
2023/07/27 04:24:44;;;;;;;1.98;1.13;;;;;;;21.43;51.58;100433.66;5053826;28;20399;-66
2023/07/27 04:27:11;;;;;;;2.80;1.60;;;;;;;21.46;51.24;100449.63;5052609;28;20388;-66
2023/07/27 04:29:36;;;;;;;4.00;2.22;;;;;;;21.48;51.74;100435.75;5052331;28;20083;-65
2023/07/27 04:32:02;;;;;;;2.10;1.40;;;;;;;21.50;52.50;100447.28;5052160;28;20029;-65
2023/07/27 04:34:27;;;;;;;3.33;1.85;;;;;;;21.51;52.08;100450.84;5053504;28;20079;-66
2023/07/27 04:36:52;;;;;;;2.05;1.33;;;;;;;21.53;52.02;100448.75;5051990;28;20542;-66
2023/07/27 04:39:18;;;;;;;2.05;1.48;;;;;;;21.58;52.59;100438.91;5053294;28;20071;-66
2023/07/27 04:41:44;;;;;;;5.63;1.60;;;;;;;21.60;52.24;100433.25;5052448;28;20017;-66
2023/07/27 04:44:09;;;;;;;4.43;1.58;;;;;;;21.60;52.63;100433.25;5052433;28;20504;-65
2023/07/27 04:46:35;;;;;;;2.42;1.80;;;;;;;21.62;52.34;100425.69;5052256;28;20083;-65
2023/07/27 04:49:01;;;;;;;4.13;1.60;;;;;;;21.66;52.26;100426.97;5052905;28;20029;-66
2023/07/27 04:51:27;;;;;;;4.82;1.27;;;;;;;21.66;52.65;100421.50;5052978;28;20045;-67
2023/07/27 04:53:52;;;;;;;4.43;1.73;;;;;;;21.68;52.70;100413.94;5035336;28;20128;-66
2023/07/27 04:56:18;;;;;;;4.65;1.35;;;;;;;21.66;52.73;100407.88;5052113;28;20028;-65
2023/07/27 04:58:44;;;;;;;2.30;1.48;;;;;;;21.65;52.46;100419.81;5051875;28;20392;-66
2023/07/27 05:01:09;;;;;;;2.78;1.42;;;;;;;21.68;53.46;100413.94;5053445;28;20029;-66
2023/07/27 05:03:34;;;;;;;2.38;1.60;;;;;;;21.70;52.67;100400.94;5034942;28;20025;-66
2023/07/27 05:06:00;;;;;;;2.58;1.40;;;;;;;21.73;53.00;100395.06;5053501;28;20087;-66
2023/07/27 05:08:25;;;;;;;2.38;1.63;;;;;;;21.79;53.34;100394.22;5051919;28;20029;-66
2023/07/27 05:10:51;;;;;;;2.45;1.10;;;;;;;21.79;52.59;100383.31;5035033;28;20029;-67
2023/07/27 05:13:16;;;;;;;4.57;1.25;;;;;;;21.77;53.40;100388.97;5051457;28;20045;-66
2023/07/27 05:15:41;;;;;;;2.50;1.60;;;;;;;21.80;52.81;100385.00;5034819;28;20472;-66
2023/07/27 05:18:07;;;;;;;5.18;1.67;;;;;;;21.80;53.73;100379.53;5033838;28;20395;-66
2023/07/27 05:20:33;;;;;;;2.70;1.63;;;;;;;21.83;53.51;100379.13;5051372;28;20111;-66
2023/07/27 05:22:59;;;;;;;2.13;1.38;;;;;;;21.78;54.11;100367.97;5051667;28;20017;-65
2023/07/27 05:25:25;;;;;;;1.75;1.60;;;;;;;21.82;54.15;100371.97;5051717;28;20033;-66
2023/07/27 05:27:50;;;;;;;7.45;1.58;;;;;;;21.83;53.27;100371.75;5051936;28;20066;-66
2023/07/27 05:30:16;;;;;;;3.00;2.05;;;;;;;21.83;53.92;100365.47;5019180;28;20037;-68
2023/07/27 05:32:41;;;;;;;1.88;1.55;;;;;;;21.86;54.41;100365.06;5054065;28;20036;-66
2023/07/27 05:35:07;;;;;;;3.67;1.45;;;;;;;21.85;54.53;100357.91;5054180;28;20540;-67
2023/07/27 05:37:33;;;;;;;2.92;1.35;;;;;;;21.87;53.64;100364.84;5052467;28;20044;-66
2023/07/27 05:39:58;;;;;;;6.00;1.30;;;;;;;21.89;54.31;100359.19;5053517;28;20469;-67
2023/07/27 05:42:24;;;;;;;6.50;1.98;;;;;;;21.95;54.64;100359.16;5053878;28;20059;-67
2023/07/27 05:44:49;;;;;;;3.17;1.55;;;;;;;22.02;53.77;100361.88;5051859;28;20033;-66
2023/07/27 05:47:14;;;;;;;6.28;1.75;;;;;;;22.07;54.25;100359.34;5055141;28;20500;-66
2023/07/27 05:49:40;;;;;;;3.00;1.05;;;;;;;22.08;54.20;100352.84;5056890;28;20044;-66
2023/07/27 05:52:06;;;;;;;1.10;1.00;;;;;;;22.12;53.85;100345.88;5055238;28;20112;-66
2023/07/27 05:54:31;;;;;;;2.50;1.10;;;;;;;22.11;54.62;100344.19;5056424;28;20041;-62
2023/07/27 05:56:57;;;;;;;3.13;1.33;;;;;;;22.17;54.73;100343.34;5057000;28;20039;-64
2023/07/27 05:59:22;;;;;;;2.85;1.38;;;;;;;22.18;53.94;100339.56;5061119;28;20044;-65
2023/07/27 06:01:47;;;;;;;2.58;1.00;;;;;;;22.21;53.95;100341.88;5056179;28;20036;-67
2023/07/27 06:04:13;;;;;;;3.10;1.05;;;;;;;22.26;54.39;100335.75;5056148;28;20033;-67
2023/07/27 06:06:38;;;;;;;2.25;1.42;;;;;;;22.29;55.16;100335.31;5056491;28;20025;-67
2023/07/27 06:09:04;;;;;;;2.70;1.52;;;;;;;22.28;55.05;100342.66;5055294;28;20203;-66
2023/07/27 06:11:29;;;;;;;2.35;1.10;;;;;;;22.28;54.80;100337.22;5055067;28;20037;-64
2023/07/27 06:13:54;;;;;;;3.13;1.27;;;;;;;22.35;55.42;100338.03;5055970;28;20033;-64
2023/07/27 06:16:20;;;;;;;2.50;1.10;;;;;;;22.39;55.24;100331.06;5055166;28;20115;-64
2023/07/27 06:18:46;;;;;;;1.17;1.02;;;;;;;22.44;54.68;100333.16;5055270;28;20025;-66
2023/07/27 06:21:11;;;;;;;1.80;1.00;;;;;;;22.49;54.44;100319.69;5056247;28;20366;-64
2023/07/27 06:23:37;;;;;;;1.75;1.35;;;;;;;22.53;54.50;100321.75;5054696;28;20029;-64
2023/07/27 06:26:02;;;;;;;3.85;1.65;;;;;;;22.59;54.52;100320.03;5056032;28;20057;-65
2023/07/27 06:28:28;;;;;;;1.95;1.00;;;;;;;22.64;55.00;100327.59;5050352;28;20059;-64
2023/07/27 06:30:53;;;;;;;2.13;1.10;;;;;;;22.71;55.20;100317.47;5054545;28;20112;-63
2023/07/27 06:33:19;;;;;;;1.55;1.20;;;;;;;22.73;54.44;100316.19;5054677;28;20041;-63
2023/07/27 06:35:45;;;;;;;2.45;1.45;;;;;;;22.75;54.81;100318.72;5057104;28;20033;-67
2023/07/27 06:38:10;;;;;;;3.30;1.00;;;;;;;22.77;54.57;100322.06;5055119;28;20477;-63
2023/07/27 06:40:36;;;;;;;1.05;0.80;;;;;;;22.77;54.96;100316.59;5055862;28;20041;-65
2023/07/27 06:43:01;;;;;;;1.83;1.10;;;;;;;22.77;55.55;100311.13;5054298;28;20032;-64
2023/07/27 06:45:26;;;;;;;1.83;1.15;;;;;;;22.83;55.10;100310.25;5055786;28;20041;-65
2023/07/27 06:47:52;;;;;;;2.10;1.20;;;;;;;22.85;55.49;100308.13;5054356;28;20055;-63
2023/07/27 06:50:18;;;;;;;4.55;1.10;;;;;;;22.80;55.11;100313.41;5054558;28;20384;-63
2023/07/27 06:52:43;;;;;;;1.73;1.00;;;;;;;22.76;55.52;100318.47;5037521;28;20103;-65
2023/07/27 06:55:08;;;;;;;2.03;1.45;;;;;;;22.79;55.65;100317.19;5054088;28;20037;-64
2023/07/27 06:57:34;;;;;;;2.08;1.17;;;;;;;22.84;54.92;100322.81;5053789;28;20163;-63
2023/07/27 07:00:00;;;;;;;2.38;1.20;;;;;;;22.86;55.14;100310.66;5055406;28;20108;-64
2023/07/27 07:02:26;;;;;;;1.27;1.02;;;;;;;22.90;54.77;100305.56;5055524;28;20628;-63
2023/07/27 07:04:51;;;;;;;1.40;1.00;;;;;;;22.90;55.40;100303.66;5055624;28;20033;-64
2023/07/27 07:07:17;;;;;;;3.15;0.80;;;;;;;22.95;54.80;100311.19;5054155;28;20400;-63
2023/07/27 07:09:42;;;;;;;2.40;1.13;;;;;;;22.95;55.51;100308.44;5054205;28;20049;-64
2023/07/27 07:12:08;;;;;;;2.40;1.10;;;;;;;22.99;55.62;100302.34;5053833;28;20025;-63
2023/07/27 07:14:33;;;;;;;6.80;1.30;;;;;;;23.05;55.66;100303.34;5055205;28;20496;-63
2023/07/27 07:16:59;;;;;;;1.65;1.15;;;;;;;23.08;55.32;100308.38;5037551;28;20033;-63
2023/07/27 07:19:26;;;;;;;3.20;1.30;;;;;;;23.12;55.89;100315.03;5053654;28;20117;-63
2023/07/27 07:21:52;;;;;;;3.08;1.45;;;;;;;23.16;55.83;100294.41;5053377;28;20040;-63
2023/07/27 07:24:18;;;;;;;2.20;1.10;;;;;;;23.25;55.41;100287.63;5054087;28;20033;-63
2023/07/27 07:26:43;;;;;;;4.03;1.23;;;;;;;23.33;55.60;100289.22;5053847;28;20083;-65
2023/07/27 07:29:09;;;;;;;5.15;1.40;;;;;;;23.37;55.13;100290.41;5055135;28;20091;-63
2023/07/27 07:31:34;;;;;;;2.65;1.33;;;;;;;23.39;55.72;100286.47;5037245;28;20033;-63
2023/07/27 07:33:59;;;;;;;2.13;1.23;;;;;;;23.47;55.58;100288.91;5037248;28;20503;-65
2023/07/27 07:36:28;;;;;;;1.15;1.05;;;;;;;23.53;55.35;100279.78;5053955;28;20043;-63
2023/07/27 07:38:53;;;;;;;4.18;1.70;;;;;;;23.56;55.53;100279.31;5053970;28;20083;-63
2023/07/27 07:41:18;;;;;;;2.38;1.35;;;;;;;23.60;55.34;100272.34;5053532;28;20029;-65
2023/07/27 07:43:46;;;;;;;1.45;1.30;;;;;;;23.63;55.13;100273.78;5053078;28;20036;-64
2023/07/27 07:46:12;;;;;;;2.75;1.20;;;;;;;23.68;56.07;100277.50;5054614;28;20453;-65
2023/07/27 07:48:38;;;;;;;2.38;1.35;;;;;;;23.75;55.24;100266.50;5053297;28;20117;-66
2023/07/27 07:51:09;;;;;;;1.85;1.10;;;;;;;23.80;56.03;100271.25;5036202;28;20134;-65
2023/07/27 07:53:35;;;;;;;1.25;1.15;;;;;;;23.89;55.69;100268.00;5053483;28;20527;-64
2023/07/27 07:56:00;;;;;;;1.40;1.27;;;;;;;23.96;55.59;100262.44;5054354;28;20037;-65
2023/07/27 07:58:25;;;;;;;0.70;0.70;;;;;;;24.00;55.61;100266.38;5052715;28;20048;-64
2023/07/27 08:00:51;;;;;;;2.40;1.33;;;;;;;24.04;55.31;100271.16;5052551;28;20118;-64
2023/07/27 08:03:16;;;;;;;3.78;1.27;;;;;;;24.12;55.20;100264.59;5052678;28;20063;-64
2023/07/27 08:05:42;;;;;;;1.77;0.93;;;;;;;24.25;55.59;100262.50;5054224;28;20033;-63
2023/07/27 08:08:07;;;;;;;3.30;1.23;;;;;;;24.32;55.33;100267.88;5052832;28;20400;-64
2023/07/27 08:10:32;;;;;;;2.85;1.30;;;;;;;24.37;54.99;100262.56;5051353;28;20033;-62
2023/07/27 08:12:58;;;;;;;4.28;1.98;;;;;;;24.41;55.60;100266.47;5052902;28;20049;-63
2023/07/27 08:15:23;;;;;;;3.47;1.52;;;;;;;24.44;55.03;100265.16;5053808;28;20057;-63
2023/07/27 08:17:49;;;;;;;4.18;1.38;;;;;;;24.52;54.97;100267.56;5052403;28;20069;-64
2023/07/27 08:20:14;;;;;;;1.30;1.20;;;;;;;24.56;55.01;100264.16;5053660;28;20029;-65
2023/07/27 08:22:39;;;;;;;1.45;1.30;;;;;;;24.60;55.57;100257.13;5052001;28;20447;-64
2023/07/27 08:25:05;;;;;;;2.67;1.30;;;;;;;24.66;55.23;100253.44;5053782;28;20131;-64
2023/07/27 08:27:34;;;;;;;4.63;1.67;;;;;;;24.70;55.40;100262.88;5053968;28;20493;-63
2023/07/27 08:30:00;;;;;;;3.08;1.77;;;;;;;24.71;54.54;100256.31;5053404;28;20381;-63
2023/07/27 08:32:25;;;;;;;2.50;1.38;;;;;;;24.77;54.54;100257.28;5052113;28;20040;-63
2023/07/27 08:34:51;;;;;;;1.58;1.20;;;;;;;24.78;54.67;100262.53;5053511;28;20033;-63
2023/07/27 08:37:16;;;;;;;4.18;1.25;;;;;;;24.72;54.82;100247.03;5035338;28;20056;-63
2023/07/27 08:39:42;;;;;;;3.25;1.83;;;;;;;24.75;54.81;100256.69;5053494;28;20079;-63
2023/07/27 08:42:08;;;;;;;1.98;1.50;;;;;;;24.74;55.03;100258.59;5053180;28;20130;-64
2023/07/27 08:44:33;;;;;;;2.10;1.02;;;;;;;24.70;55.01;100257.41;5051500;28;20049;-63
2023/07/27 08:47:00;;;;;;;1.98;1.13;;;;;;;24.67;55.26;100266.09;5051925;28;20041;-63
2023/07/27 08:49:26;;;;;;;2.45;1.30;;;;;;;24.66;54.84;100266.31;5052024;28;20033;-63
2023/07/27 08:51:51;;;;;;;2.83;0.90;;;;;;;24.62;55.13;100263.19;5051702;28;20059;-63
2023/07/27 08:54:16;;;;;;;2.45;1.20;;;;;;;24.64;54.78;100261.06;5051882;28;20037;-63
2023/07/27 08:56:42;;;;;;;1.88;1.25;;;;;;;24.71;54.91;100266.44;5035120;28;20112;-63
2023/07/27 08:59:07;;;;;;;2.38;1.30;;;;;;;24.75;54.64;100259.44;5051809;28;20056;-64
2023/07/27 09:01:33;;;;;;;1.40;1.10;;;;;;;24.77;55.15;100255.38;5053120;28;20049;-63
2023/07/27 09:03:58;;;;;;;1.45;1.15;;;;;;;24.77;54.92;100260.84;5051739;28;20052;-64
2023/07/27 09:06:40;;;;;;;2.08;1.30;;;;;;;24.80;54.60;100260.41;5035167;28;20053;-64
2023/07/27 09:09:20;;;;;;;3.45;1.58;;;;;;;24.86;54.50;100259.47;5052977;28;20029;-63
2023/07/27 09:11:46;;;;;;;2.05;1.60;;;;;;;24.88;54.66;100267.44;5052865;28;20504;-63
2023/07/27 09:14:12;;;;;;;4.38;2.03;;;;;;;24.99;54.68;100263.88;5051811;28;20484;-63
2023/07/27 09:16:37;;;;;;;2.03;1.48;;;;;;;25.16;54.56;100255.78;5053364;28;20083;-63
2023/07/27 09:19:04;;;;;;;2.00;1.30;;;;;;;25.36;53.91;100259.84;5052117;28;20037;-63
2023/07/27 09:21:38;;;;;;;3.03;1.98;;;;;;;25.46;53.96;100254.59;5052182;28;20041;-63
2023/07/27 09:24:04;;;;;;;2.58;1.58;;;;;;;25.54;53.79;100250.69;5052746;28;20033;-64
2023/07/27 09:26:29;;;;;;;2.92;1.63;;;;;;;25.63;53.82;100254.72;5053189;28;20504;-63
2023/07/27 09:28:54;;;;;;;2.67;1.83;;;;;;;25.71;53.91;100250.78;5053237;28;20120;-63
2023/07/27 09:31:20;;;;;;;6.30;2.28;;;;;;;25.75;53.36;100254.69;5051956;28;20029;-63
2023/07/27 09:33:46;;;;;;;2.08;1.80;;;;;;;25.79;53.43;100258.63;5052823;28;20412;-64
2023/07/27 09:36:12;;;;;;;4.28;1.27;;;;;;;25.85;53.31;100247.50;5052448;28;20033;-64
2023/07/27 09:38:38;;;;;;;2.08;1.10;;;;;;;25.90;53.13;100253.13;5051173;28;20033;-64
2023/07/27 09:41:08;;;;;;;3.85;2.33;;;;;;;25.94;53.41;100251.53;5051283;28;20059;-64
2023/07/27 09:43:39;;;;;;;2.33;1.50;;;;;;;26.08;52.81;100262.22;5034711;28;20033;-64
2023/07/27 09:46:04;;;;;;;2.80;1.80;;;;;;;26.12;53.03;100256.03;5051278;28;20033;-63
2023/07/27 09:48:30;;;;;;;2.38;1.98;;;;;;;26.17;53.02;100263.56;5051218;28;20037;-64
2023/07/27 09:50:57;;;;;;;1.20;1.10;;;;;;;26.26;52.72;100259.34;5051207;28;20049;-63
2023/07/27 09:53:23;;;;;;;2.60;1.30;;;;;;;26.40;52.81;100260.72;5051786;28;20049;-64
2023/07/27 09:55:50;;;;;;;1.58;1.23;;;;;;;26.50;52.81;100260.88;5034619;28;20028;-64
2023/07/27 09:58:15;;;;;;;1.15;0.73;;;;;;;26.54;52.76;100268.41;5051263;28;20022;-63
2023/07/27 10:00:41;;;;;;;3.38;1.38;;;;;;;26.56;52.75;100268.16;5050976;28;20395;-64
2023/07/27 10:03:07;;;;;;;1.25;0.80;;;;;;;26.63;53.53;100266.09;5051110;28;20021;-63
2023/07/27 10:05:34;;;;;;;2.05;0.65;;;;;;;26.66;52.94;100271.09;5034401;28;20544;-64
2023/07/27 10:08:00;;;;;;;1.30;0.75;;;;;;;26.73;53.13;100277.25;5034381;28;20112;-64
2023/07/27 10:10:38;;;;;;;1.10;0.50;;;;;;;26.79;52.86;100265.31;5051279;28;20103;-65
2023/07/27 10:13:23;;;;;;;1.63;0.70;;;;;;;26.85;52.72;100264.31;5034427;28;20051;-63
2023/07/27 10:15:51;;;;;;;0.77;0.50;;;;;;;26.84;52.70;100270.88;5052410;28;20029;-64
2023/07/27 10:18:21;;;;;;;0.50;0.32;;;;;;;26.88;52.08;100268.47;5050905;28;20033;-63
2023/07/27 10:20:46;;;;;;;0.68;0.52;;;;;;;26.89;52.95;100268.22;5034434;28;20554;-64
2023/07/27 10:23:20;;;;;;;1.00;0.70;;;;;;;26.84;52.38;100270.88;5034699;28;20033;-64
2023/07/27 10:25:54;;;;;;;0.80;0.70;;;;;;;26.82;53.38;100270.31;5052379;28;20039;-63
2023/07/27 10:28:30;;;;;;;1.08;0.70;;;;;;;26.79;53.29;100280.97;5052435;28;20120;-63
2023/07/27 10:31:26;;;;;;;0.90;0.57;;;;;;;26.75;52.95;100277.81;5050868;28;20048;-62
2023/07/27 10:34:07;;;;;;;0.40;0.40;;;;;;;26.80;52.74;100275.19;5051709;28;20041;-63
2023/07/27 10:36:58;;;;;;;0.75;0.40;;;;;;;26.85;53.57;100275.31;5055628;28;20033;-62
2023/07/27 10:39:48;;;;;;;1.33;0.60;;;;;;;26.77;53.23;100278.44;5054023;28;20500;-64
2023/07/27 10:42:18;;;;;;;1.25;0.40;;;;;;;26.74;52.64;100269.84;5054077;28;20037;-62
2023/07/27 10:44:56;;;;;;;2.47;1.40;;;;;;;26.78;53.44;100269.13;5055427;28;20033;-63
2023/07/27 10:47:26;;;;;;;2.45;0.52;;;;;;;26.75;53.16;100275.09;5055581;28;20040;-63
2023/07/27 10:49:56;;;;;;;1.33;0.82;;;;;;;26.74;53.33;100276.19;5054157;28;20037;-62
2023/07/27 10:52:31;;;;;;;0.73;0.52;;;;;;;26.71;53.22;100273.94;5055471;28;20069;-63
2023/07/27 10:54:59;;;;;;;0.70;0.70;;;;;;;26.86;52.72;100276.94;5054087;28;20484;-63
2023/07/27 10:57:26;;;;;;;1.17;0.70;;;;;;;26.87;53.14;100262.13;5055072;28;20040;-63
2023/07/27 10:59:52;;;;;;;1.20;0.73;;;;;;;26.91;53.13;100268.78;5054077;28;20033;-63
2023/07/27 11:02:22;;;;;;;1.13;0.80;;;;;;;26.96;52.26;100260.66;5037343;28;20033;-63
2023/07/27 11:04:50;;;;;;;0.90;0.90;;;;;;;27.08;52.75;100264.13;5055505;28;20112;-63
2023/07/27 11:07:27;;;;;;;1.70;1.00;;;;;;;27.22;52.57;100252.78;5037689;28;20040;-63
2023/07/27 11:09:53;;;;;;;1.63;0.90;;;;;;;27.27;52.03;100259.22;5054341;28;20025;-63
2023/07/27 11:12:18;;;;;;;0.85;0.70;;;;;;;27.31;52.56;100263.09;5053947;28;20504;-63
2023/07/27 11:14:43;;;;;;;1.70;0.98;;;;;;;27.29;52.94;100261.69;5037472;28;20166;-63
2023/07/27 11:17:11;;;;;;;1.58;0.77;;;;;;;27.35;51.56;100257.94;5053488;28;20511;-63
2023/07/27 11:19:36;;;;;;;1.77;1.20;;;;;;;27.34;52.49;100259.00;5047742;28;20044;-63
2023/07/27 11:22:02;;;;;;;0.75;0.70;;;;;;;27.28;51.94;100262.78;5057346;28;20553;-63
2023/07/27 11:24:29;;;;;;;1.33;0.70;;;;;;;27.32;52.15;100258.44;5036923;28;20568;-63